createdAt,value
2023-07-21T00:00:32.743Z,13.59
2023-07-21T00:03:42.112Z,13.79
2023-07-21T00:06:44.958Z,13.88
2023-07-21T00:09:52.745Z,13.99
2023-07-21T00:13:00.395Z,14.07
2023-07-21T00:16:09.144Z,14.13
2023-07-21T00:19:16.314Z,14.17
2023-07-21T00:22:24.456Z,14.16
2023-07-21T00:25:33.071Z,14.19
2023-07-21T00:28:40.815Z,14.28
2023-07-21T00:31:47.913Z,14.34
2023-07-21T00:34:56.985Z,14.38
2023-07-21T00:38:04.495Z,14.44
2023-07-21T00:41:11.656Z,14.50
2023-07-21T00:44:19.226Z,14.60
2023-07-21T00:47:28.705Z,14.65
2023-07-21T00:50:35.771Z,14.69
2023-07-21T00:53:42.934Z,14.74
2023-07-21T00:56:51.362Z,14.75
2023-07-21T00:59:58.855Z,14.81
2023-07-21T01:03:05.496Z,14.86
2023-07-21T01:06:14.620Z,14.91
2023-07-21T01:09:22.179Z,14.93
2023-07-21T01:12:29.922Z,14.93
2023-07-21T01:15:38.307Z,14.94
2023-07-21T01:18:45.534Z,14.98
2023-07-21T01:21:53.014Z,15.02
2023-07-21T01:25:00.145Z,15.05
2023-07-21T01:28:08.783Z,15.02
2023-07-21T01:31:16.292Z,15.03
2023-07-21T01:34:23.352Z,15.02
2023-07-21T01:37:32.276Z,15.05
2023-07-21T01:40:40.043Z,15.05
2023-07-21T01:43:47.205Z,15.01
2023-07-21T01:46:55.896Z,14.98
2023-07-21T01:50:03.060Z,14.95
2023-07-21T01:53:10.487Z,14.99
2023-07-21T01:56:18.576Z,15.03
2023-07-21T01:59:27.195Z,15.08
2023-07-21T02:02:34.627Z,15.09
2023-07-21T02:05:41.989Z,15.11
2023-07-21T02:08:50.907Z,15.12
2023-07-21T02:11:58.424Z,15.15
2023-07-21T02:15:06.040Z,15.20
2023-07-21T02:18:14.924Z,15.17
2023-07-21T02:21:21.634Z,15.15
2023-07-21T02:24:29.235Z,15.19
2023-07-21T02:27:38.247Z,15.17
2023-07-21T02:30:45.036Z,15.12
2023-07-21T02:33:53.144Z,15.01
2023-07-21T02:37:00.294Z,14.98
2023-07-21T02:40:08.881Z,15.01
2023-07-21T02:43:16.625Z,15.11
2023-07-21T02:46:24.772Z,15.17
2023-07-21T02:49:33.505Z,15.19
2023-07-21T02:52:40.851Z,15.17
2023-07-21T02:55:48.289Z,15.13
2023-07-21T02:58:57.104Z,15.12
2023-07-21T03:02:04.274Z,15.06
2023-07-21T03:05:11.411Z,14.88
2023-07-21T03:08:20.439Z,14.50
2023-07-21T03:11:27.667Z,14.34
2023-07-21T03:14:35.644Z,14.25
2023-07-21T03:17:42.323Z,14.07
2023-07-21T03:20:51.233Z,14.10
2023-07-21T03:23:58.278Z,14.21
2023-07-21T03:27:05.737Z,14.19
2023-07-21T03:30:14.613Z,14.07
2023-07-21T03:33:21.356Z,14.07
2023-07-21T03:36:29.041Z,13.98
2023-07-21T03:39:37.496Z,13.87
2023-07-21T03:42:44.711Z,13.84
2023-07-21T03:45:51.962Z,13.88
2023-07-21T03:48:59.436Z,13.87
2023-07-21T03:52:08.375Z,13.77
2023-07-21T03:55:15.645Z,13.65
2023-07-21T03:58:23.052Z,13.63
2023-07-21T04:01:31.904Z,13.88
2023-07-21T04:04:39.020Z,14.04
2023-07-21T04:07:46.950Z,14.02
2023-07-21T04:10:56.246Z,13.99
2023-07-21T04:14:03.005Z,13.91
2023-07-21T04:17:11.003Z,13.77
2023-07-21T04:20:19.705Z,13.74
2023-07-21T04:23:27.727Z,13.76
2023-07-21T04:26:34.824Z,13.73
2023-07-21T04:29:41.914Z,13.74
2023-07-21T04:32:50.688Z,13.81
2023-07-21T04:35:58.716Z,13.80
2023-07-21T04:39:05.356Z,13.83
2023-07-21T04:42:15.555Z,13.87
2023-07-21T04:45:22.801Z,13.94
2023-07-21T04:48:29.944Z,14.16
2023-07-21T04:51:38.727Z,14.24
2023-07-21T04:54:46.308Z,14.44
2023-07-21T04:57:53.274Z,14.43
2023-07-21T05:01:02.328Z,14.42
2023-07-21T05:04:10.222Z,14.38
2023-07-21T05:07:17.037Z,14.52
2023-07-21T05:10:25.557Z,14.50
2023-07-21T05:13:34.677Z,14.64
2023-07-21T05:16:41.931Z,14.65
2023-07-21T05:19:48.998Z,14.72
2023-07-21T05:22:58.701Z,14.93
2023-07-21T05:26:05.887Z,15.06
2023-07-21T05:29:12.876Z,15.09
2023-07-21T05:32:21.784Z,15.09
2023-07-21T05:35:28.905Z,15.12
2023-07-21T05:38:36.790Z,15.12
2023-07-21T05:41:45.028Z,15.08
2023-07-21T05:44:52.707Z,15.19
2023-07-21T05:47:59.850Z,15.24
2023-07-21T05:51:07.432Z,15.46
2023-07-21T05:54:16.621Z,15.75
2023-07-21T05:57:23.456Z,15.79
2023-07-21T06:00:31.880Z,15.93
2023-07-21T06:03:40.298Z,16.07
2023-07-21T06:06:47.979Z,16.16
2023-07-21T06:09:55.321Z,16.35
2023-07-21T06:13:03.988Z,16.44
2023-07-21T06:16:11.488Z,16.55
2023-07-21T06:19:18.791Z,16.63
2023-07-21T06:22:26.890Z,16.68
2023-07-21T06:25:35.457Z,16.75
2023-07-21T06:28:42.947Z,16.92
2023-07-21T06:31:49.608Z,16.99
2023-07-21T06:34:58.555Z,17.06
2023-07-21T06:38:06.102Z,17.08
2023-07-21T06:41:12.756Z,17.03
2023-07-21T06:44:22.389Z,17.13
2023-07-21T06:47:29.580Z,17.20
2023-07-21T06:50:37.027Z,17.38
2023-07-21T06:53:46.193Z,17.64
2023-07-21T06:56:53.875Z,17.81
2023-07-21T07:00:01.622Z,17.95
2023-07-21T07:03:08.434Z,18.00
2023-07-21T07:06:17.914Z,18.09
2023-07-21T07:09:24.566Z,18.22
2023-07-21T07:12:32.575Z,18.31
2023-07-21T07:15:41.839Z,18.33
2023-07-21T07:18:48.701Z,18.39
2023-07-21T07:21:56.692Z,18.40
2023-07-21T07:25:05.516Z,18.47
2023-07-21T07:28:12.585Z,18.47
2023-07-21T07:31:20.006Z,18.61
2023-07-21T07:34:28.213Z,18.73
2023-07-21T07:37:36.494Z,18.80
2023-07-21T07:40:45.184Z,18.92
2023-07-21T07:43:52.587Z,19.01
2023-07-21T07:47:01.111Z,18.99
2023-07-21T07:50:08.280Z,19.10
2023-07-21T07:53:15.348Z,19.17
2023-07-21T07:56:23.910Z,19.35
2023-07-21T07:59:31.729Z,19.39
2023-07-21T08:02:39.336Z,19.39
2023-07-21T08:05:47.449Z,19.42
2023-07-21T08:08:56.049Z,19.39
2023-07-21T08:12:03.526Z,19.47
2023-07-21T08:15:10.804Z,19.28
2023-07-21T08:18:19.916Z,19.28
2023-07-21T08:21:27.801Z,19.43
2023-07-21T08:24:34.740Z,19.53
2023-07-21T08:27:44.416Z,19.66
2023-07-21T08:30:58.746Z,19.76
2023-07-21T08:33:56.090Z,19.83
2023-07-21T08:37:04.669Z,19.70
2023-07-21T08:40:12.263Z,19.78
2023-07-21T08:43:19.456Z,19.86
2023-07-21T08:46:27.901Z,19.78
2023-07-21T08:49:37.430Z,19.76
2023-07-21T08:52:44.188Z,19.87
2023-07-21T08:55:51.858Z,20.18
2023-07-21T08:59:00.688Z,20.53
2023-07-21T09:02:07.592Z,20.69
2023-07-21T09:05:14.602Z,20.83
2023-07-21T09:08:24.010Z,20.77
2023-07-21T09:11:31.076Z,20.74
2023-07-21T09:14:38.104Z,20.87
2023-07-21T09:17:47.081Z,21.13
2023-07-21T09:20:53.864Z,21.48
2023-07-21T09:24:01.174Z,21.82
2023-07-21T09:27:09.180Z,22.29
2023-07-21T09:30:17.727Z,22.49
2023-07-21T09:33:25.760Z,22.50
2023-07-21T09:36:33.337Z,22.52
2023-07-21T09:39:42.529Z,22.78
2023-07-21T09:42:50.129Z,22.96
2023-07-21T09:45:57.300Z,22.94
2023-07-21T09:49:05.584Z,23.08
2023-07-21T09:52:13.723Z,23.08
2023-07-21T09:55:21.251Z,22.96
2023-07-21T09:58:30.831Z,22.57
2023-07-21T10:01:38.090Z,22.39
2023-07-21T10:04:45.846Z,22.64
2023-07-21T10:07:53.544Z,22.99
2023-07-21T10:11:02.227Z,23.24
2023-07-21T10:14:09.565Z,23.11
2023-07-21T10:17:16.491Z,22.94
2023-07-21T10:20:25.508Z,22.89
2023-07-21T10:23:32.687Z,22.96
2023-07-21T10:26:39.572Z,23.27
2023-07-21T10:29:48.768Z,23.53
2023-07-21T10:32:56.200Z,23.72
2023-07-21T10:36:03.567Z,24.16
2023-07-21T10:39:12.407Z,24.67
2023-07-21T10:42:19.686Z,24.90
2023-07-21T10:45:27.038Z,25.17
2023-07-21T10:48:34.111Z,25.19
2023-07-21T10:51:42.880Z,25.05
2023-07-21T10:54:51.121Z,25.02
2023-07-21T10:57:58.342Z,24.71
2023-07-21T11:01:06.970Z,24.26
2023-07-21T11:04:14.668Z,23.89
2023-07-21T11:07:22.093Z,23.82
2023-07-21T11:10:30.832Z,24.04
2023-07-21T11:13:38.556Z,23.95
2023-07-21T11:16:46.275Z,24.00
2023-07-21T11:19:53.630Z,23.76
2023-07-21T11:23:03.516Z,23.62
2023-07-21T11:26:11.830Z,23.76
2023-07-21T11:29:18.574Z,23.89
2023-07-21T11:32:27.909Z,23.71
2023-07-21T11:35:35.616Z,23.53
2023-07-21T11:38:43.063Z,23.76
2023-07-21T11:41:51.938Z,24.37
2023-07-21T11:44:59.156Z,24.98
2023-07-21T11:48:06.590Z,25.31
2023-07-21T11:51:16.094Z,25.27
2023-07-21T11:54:23.476Z,24.79
2023-07-21T11:57:31.585Z,24.61
2023-07-21T12:00:39.025Z,24.53
2023-07-21T12:03:48.011Z,24.44
2023-07-21T12:06:55.706Z,24.71
2023-07-21T12:10:03.685Z,25.12
2023-07-21T12:13:12.571Z,25.35
2023-07-21T12:16:19.902Z,24.82
2023-07-21T12:19:27.003Z,24.60
2023-07-21T12:22:36.238Z,24.29
2023-07-21T12:25:43.511Z,24.54
2023-07-21T12:28:51.543Z,24.44
2023-07-21T12:32:01.328Z,23.83
2023-07-21T12:35:10.026Z,23.68
2023-07-21T12:38:17.971Z,23.85
2023-07-21T12:41:25.969Z,23.61
2023-07-21T12:44:35.024Z,23.34
2023-07-21T12:47:42.520Z,23.35
2023-07-21T12:50:49.904Z,22.78
2023-07-21T12:53:58.996Z,22.69
2023-07-21T12:57:06.484Z,22.74
2023-07-21T13:00:14.532Z,22.56
2023-07-21T13:03:23.667Z,22.41
2023-07-21T13:06:34.264Z,22.38
2023-07-21T13:09:33.622Z,22.38
2023-07-21T13:12:42.573Z,22.56
2023-07-21T13:15:49.958Z,22.54
2023-07-21T13:18:57.243Z,22.35
2023-07-21T13:22:04.940Z,22.20
2023-07-21T13:25:13.701Z,22.01
2023-07-21T13:28:21.383Z,21.90
2023-07-21T13:31:29.051Z,21.82
2023-07-21T13:34:37.460Z,21.76
2023-07-21T13:37:45.951Z,21.69
2023-07-21T13:40:53.822Z,21.59
2023-07-21T13:44:03.500Z,20.79
2023-07-21T13:47:10.907Z,19.35
2023-07-21T13:50:18.485Z,18.31
2023-07-21T13:53:26.983Z,17.73
2023-07-21T13:56:34.520Z,17.32
2023-07-21T13:59:42.476Z,17.06
2023-07-21T14:02:50.036Z,16.96
2023-07-21T14:05:59.234Z,16.86
2023-07-21T14:09:06.912Z,16.83
2023-07-21T14:12:14.129Z,16.88
2023-07-21T14:15:23.211Z,16.98
2023-07-21T14:18:30.965Z,17.14
2023-07-21T14:21:38.275Z,17.41
2023-07-21T14:24:47.642Z,17.94
2023-07-21T14:27:54.924Z,18.49
2023-07-21T14:31:02.179Z,18.90
2023-07-21T14:34:09.571Z,19.05
2023-07-21T14:37:18.950Z,19.17
2023-07-21T14:40:26.227Z,19.46
2023-07-21T14:43:33.923Z,19.70
2023-07-21T14:46:43.426Z,19.83
2023-07-21T14:49:51.240Z,19.80
2023-07-21T14:52:59.502Z,19.58
2023-07-21T14:56:08.740Z,19.61
2023-07-21T14:59:16.186Z,19.57
2023-07-21T15:02:23.638Z,19.60
2023-07-21T15:05:32.883Z,19.57
2023-07-21T15:08:40.287Z,19.57
2023-07-21T15:11:48.029Z,19.53
2023-07-21T15:14:57.124Z,19.47
2023-07-21T15:18:04.999Z,19.43
2023-07-21T15:21:12.573Z,19.40
2023-07-21T15:24:19.913Z,19.39
2023-07-21T15:27:29.487Z,19.29
2023-07-21T15:30:38.109Z,19.17
2023-07-21T15:33:46.015Z,19.10
2023-07-21T15:36:54.355Z,19.15
2023-07-21T15:40:02.410Z,19.42
2023-07-21T15:43:10.049Z,20.02
2023-07-21T15:46:19.906Z,20.77
2023-07-21T15:49:38.254Z,21.19
2023-07-21T15:52:33.984Z,21.27
2023-07-21T15:55:41.997Z,21.13
2023-07-21T15:58:51.948Z,21.08
2023-07-21T16:01:59.887Z,21.04
2023-07-21T16:05:07.339Z,20.74
2023-07-21T16:08:16.553Z,20.64
2023-07-21T16:11:24.386Z,20.66
2023-07-21T16:14:32.045Z,20.66
2023-07-21T16:17:40.864Z,20.87
2023-07-21T16:20:48.920Z,20.86
2023-07-21T16:23:56.143Z,20.81
2023-07-21T16:27:04.814Z,20.83
2023-07-21T16:30:12.235Z,20.84
2023-07-21T16:33:19.156Z,20.74
2023-07-21T16:36:26.800Z,20.89
2023-07-21T16:39:35.989Z,20.90
2023-07-21T16:42:42.833Z,20.86
2023-07-21T16:45:50.419Z,20.91
2023-07-21T16:48:59.421Z,20.87
2023-07-21T16:52:06.687Z,20.86
2023-07-21T16:55:14.825Z,20.69
2023-07-21T16:58:25.709Z,20.66
2023-07-21T17:01:34.814Z,20.66
2023-07-21T17:04:41.925Z,20.64
2023-07-21T17:07:51.881Z,20.65
2023-07-21T17:10:59.135Z,20.49
2023-07-21T17:14:06.899Z,20.38
2023-07-21T17:17:14.096Z,20.24
2023-07-21T17:20:23.201Z,20.13
2023-07-21T17:23:30.781Z,20.06
2023-07-21T17:26:38.559Z,20.00
2023-07-21T17:29:46.867Z,19.93
2023-07-21T17:32:54.991Z,19.84
2023-07-21T17:36:02.157Z,19.72
2023-07-21T17:39:10.957Z,19.57
2023-07-21T17:42:18.537Z,19.48
2023-07-21T17:45:26.126Z,19.42
2023-07-21T17:48:33.662Z,19.39
2023-07-21T17:51:41.958Z,19.38
2023-07-21T17:54:50.232Z,19.35
2023-07-21T17:57:57.400Z,19.32
2023-07-21T18:01:06.258Z,19.32
2023-07-21T18:04:13.946Z,19.28
2023-07-21T18:07:21.438Z,19.25
2023-07-21T18:10:30.424Z,19.21
2023-07-21T18:13:37.669Z,19.20
2023-07-21T18:16:44.988Z,19.15
2023-07-21T18:19:53.731Z,19.06
2023-07-21T18:23:01.773Z,18.95
2023-07-21T18:26:08.641Z,18.84
2023-07-21T18:29:16.173Z,18.77
2023-07-21T18:32:24.758Z,18.55
2023-07-21T18:35:32.914Z,18.21
2023-07-21T18:38:39.792Z,17.84
2023-07-21T18:41:49.090Z,17.47
2023-07-21T18:44:56.041Z,17.33
2023-07-21T18:48:03.390Z,17.30
2023-07-21T18:51:11.875Z,17.29
2023-07-21T18:54:19.596Z,17.26
2023-07-21T18:57:27.249Z,17.36
2023-07-21T19:00:35.831Z,17.38
2023-07-21T19:03:42.936Z,17.33
2023-07-21T19:06:50.126Z,17.32
2023-07-21T19:09:59.402Z,17.28
2023-07-21T19:13:07.895Z,17.25
2023-07-21T19:16:15.043Z,17.23
2023-07-21T19:19:22.933Z,17.18
2023-07-21T19:22:31.881Z,17.06
2023-07-21T19:25:38.687Z,16.95
2023-07-21T19:28:46.803Z,16.99
2023-07-21T19:31:56.064Z,17.03
2023-07-21T19:35:41.632Z,17.11
2023-07-21T19:38:49.025Z,17.13
2023-07-21T19:41:57.255Z,17.13
2023-07-21T19:45:04.328Z,17.15
2023-07-21T19:48:11.691Z,17.22
2023-07-21T19:51:18.927Z,17.22
2023-07-21T19:54:27.496Z,17.15
2023-07-21T19:57:35.064Z,17.07
2023-07-21T20:00:42.157Z,17.04
2023-07-21T20:03:51.220Z,17.04
2023-07-21T20:06:58.510Z,17.00
2023-07-21T20:10:05.830Z,16.96
2023-07-21T20:10:48.908Z,16.96
2023-07-21T20:13:58.380Z,16.92
2023-07-21T20:17:05.877Z,16.89
2023-07-21T20:20:13.126Z,16.83
2023-07-21T20:23:21.716Z,16.81
2023-07-21T20:26:29.653Z,16.74
2023-07-21T20:29:37.796Z,16.70
2023-07-21T20:32:45.959Z,16.60
2023-07-21T20:35:53.528Z,16.55
2023-07-21T20:39:01.058Z,16.55
2023-07-21T20:42:08.113Z,16.50
2023-07-21T20:45:16.672Z,16.35
2023-07-21T20:48:24.449Z,16.27
2023-07-21T20:51:31.871Z,16.22
2023-07-21T20:54:40.482Z,16.11
2023-07-21T20:57:48.745Z,16.07
2023-07-21T21:00:56.298Z,16.06
2023-07-21T21:04:05.148Z,16.03
2023-07-21T21:07:12.973Z,15.99
2023-07-21T21:10:21.213Z,15.99
2023-07-21T21:13:29.364Z,15.97
2023-07-21T21:16:30.394Z,15.96
2023-07-21T21:19:38.107Z,15.97
2023-07-21T21:22:45.166Z,16.01
2023-07-21T21:25:53.941Z,15.99
2023-07-21T21:29:01.676Z,15.97
2023-07-21T21:32:08.411Z,15.97
2023-07-21T21:35:17.499Z,15.99
2023-07-21T21:38:24.231Z,15.96
2023-07-21T21:41:31.382Z,15.94
2023-07-21T21:44:39.945Z,15.94
2023-07-21T21:47:47.380Z,15.97
2023-07-21T21:50:54.033Z,15.96
2023-07-21T21:54:02.523Z,15.97
2023-07-21T21:57:11.460Z,15.89
2023-07-21T22:00:18.472Z,15.92
2023-07-21T22:03:27.943Z,15.93
2023-07-21T22:06:36.890Z,15.94
2023-07-21T22:09:44.030Z,15.92
2023-07-21T22:12:51.616Z,15.93
2023-07-21T22:16:00.569Z,15.86
2023-07-21T22:19:07.232Z,15.86
2023-07-21T22:22:14.818Z,15.82
2023-07-21T22:25:23.826Z,15.74
2023-07-21T22:28:30.686Z,15.63
2023-07-21T22:31:37.790Z,15.60
2023-07-21T22:34:44.955Z,15.52
2023-07-21T22:37:53.609Z,15.49
2023-07-21T22:41:01.907Z,15.46
2023-07-21T22:44:09.686Z,15.46
2023-07-21T22:47:18.677Z,15.49
2023-07-21T22:50:25.827Z,15.49
2023-07-21T22:53:33.333Z,15.49
2023-07-21T22:56:42.226Z,15.51
2023-07-21T22:59:50.154Z,15.56
2023-07-21T23:02:57.290Z,15.57
2023-07-21T23:06:04.304Z,15.54
2023-07-21T23:09:13.492Z,15.59
2023-07-21T23:12:20.916Z,15.59
2023-07-21T23:15:27.986Z,15.61
2023-07-21T23:18:36.591Z,15.66
2023-07-21T23:21:44.120Z,15.63
2023-07-21T23:24:51.179Z,15.57
2023-07-21T23:28:00.098Z,15.49
2023-07-21T23:31:07.705Z,15.38
2023-07-21T23:34:14.393Z,15.28
2023-07-21T23:37:23.278Z,15.19
2023-07-21T23:40:30.407Z,15.05
2023-07-21T23:43:37.552Z,14.98
2023-07-21T23:46:45.196Z,14.91
2023-07-21T23:49:54.956Z,14.84
2023-07-21T23:53:02.139Z,14.74
2023-07-21T23:56:09.481Z,14.67
2023-07-21T23:59:18.488Z,14.60
